createdAt,value
2023-05-16T00:00:51.865Z,432.00
2023-05-16T00:01:51.966Z,433.00
2023-05-16T00:02:52.027Z,430.00
2023-05-16T00:03:52.070Z,429.00
2023-05-16T00:04:51.979Z,427.00
2023-05-16T00:05:52.036Z,427.00
2023-05-16T00:06:52.069Z,426.00
2023-05-16T00:07:52.071Z,425.00
2023-05-16T00:08:52.085Z,425.00
2023-05-16T00:09:52.139Z,424.00
2023-05-16T00:10:52.164Z,423.00
2023-05-16T00:11:52.185Z,423.00
2023-05-16T00:12:52.205Z,424.00
2023-05-16T00:13:52.205Z,424.00
2023-05-16T00:14:52.232Z,424.00
2023-05-16T00:15:52.250Z,424.00
2023-05-16T00:16:52.356Z,425.00
2023-05-16T00:17:52.330Z,424.00
2023-05-16T00:18:52.379Z,428.00
2023-05-16T00:19:52.336Z,427.00
2023-05-16T00:20:52.356Z,427.00
2023-05-16T00:21:52.369Z,428.00
2023-05-16T00:22:52.420Z,427.00
2023-05-16T00:23:52.447Z,429.00
2023-05-16T00:24:52.496Z,432.00
2023-05-16T00:25:52.498Z,430.00
2023-05-16T00:26:52.524Z,430.00
2023-05-16T00:27:52.553Z,429.00
2023-05-16T00:28:52.534Z,430.00
2023-05-16T00:29:52.541Z,430.00
2023-05-16T00:30:52.571Z,432.00
2023-05-16T00:31:52.577Z,429.00
2023-05-16T00:32:52.640Z,426.00
2023-05-16T00:33:52.562Z,426.00
2023-05-16T00:34:52.589Z,425.00
2023-05-16T00:35:52.636Z,426.00
2023-05-16T00:36:52.635Z,426.00
2023-05-16T00:37:52.644Z,426.00
2023-05-16T00:38:52.657Z,430.00
2023-05-16T00:39:52.702Z,431.00
2023-05-16T00:40:52.752Z,430.00
2023-05-16T00:41:52.774Z,430.00
2023-05-16T00:42:52.798Z,431.00
2023-05-16T00:43:52.837Z,432.00
2023-05-16T00:44:52.888Z,434.00
2023-05-16T00:45:52.925Z,434.00
2023-05-16T00:46:52.886Z,433.00
2023-05-16T00:47:52.932Z,433.00
2023-05-16T00:48:52.927Z,432.00
2023-05-16T00:49:52.947Z,432.00
2023-05-16T00:50:53.039Z,433.00
2023-05-16T00:51:52.995Z,432.00
2023-05-16T00:52:52.984Z,430.00
2023-05-16T00:53:53.028Z,428.00
2023-05-16T00:54:52.986Z,425.00
2023-05-16T00:55:53.020Z,424.00
2023-05-16T00:56:53.047Z,425.00
2023-05-16T00:57:53.088Z,426.00
2023-05-16T00:58:53.132Z,427.00
2023-05-16T00:59:53.160Z,428.00
2023-05-16T01:00:53.203Z,430.00
2023-05-16T01:01:53.407Z,430.00
2023-05-16T01:02:53.406Z,431.00
2023-05-16T01:03:53.426Z,434.00
2023-05-16T01:04:53.374Z,434.00
2023-05-16T01:05:53.408Z,436.00
2023-05-16T01:06:53.480Z,436.00
2023-05-16T01:07:53.554Z,435.00
2023-05-16T01:08:53.542Z,434.00
2023-05-16T01:09:53.573Z,436.00
2023-05-16T01:10:53.642Z,436.00
2023-05-16T01:11:53.672Z,436.00
2023-05-16T01:12:53.681Z,437.00
2023-05-16T01:13:53.742Z,437.00
2023-05-16T01:14:53.793Z,437.00
2023-05-16T01:15:53.826Z,437.00
2023-05-16T01:16:53.798Z,437.00
2023-05-16T01:17:53.836Z,436.00
2023-05-16T01:18:53.845Z,435.00
2023-05-16T01:19:53.779Z,434.00
2023-05-16T01:20:53.785Z,431.00
2023-05-16T01:21:53.812Z,431.00
2023-05-16T01:22:53.838Z,431.00
2023-05-16T01:23:53.852Z,432.00
2023-05-16T01:24:53.922Z,432.00
2023-05-16T01:25:53.966Z,433.00
2023-05-16T01:26:54.054Z,433.00
2023-05-16T01:27:54.036Z,433.00
2023-05-16T01:28:54.012Z,435.00
2023-05-16T01:29:54.008Z,432.00
2023-05-16T01:30:54.014Z,428.00
2023-05-16T01:31:54.119Z,427.00
2023-05-16T01:32:54.168Z,425.00
2023-05-16T01:33:54.129Z,426.00
2023-05-16T01:34:54.168Z,426.00
2023-05-16T01:35:54.218Z,425.00
2023-05-16T01:36:54.253Z,426.00
2023-05-16T01:37:54.287Z,428.00
2023-05-16T01:38:54.339Z,430.00
2023-05-16T01:39:54.428Z,429.00
2023-05-16T01:40:54.429Z,429.00
2023-05-16T01:41:54.471Z,428.00
2023-05-16T01:42:54.507Z,429.00
2023-05-16T01:43:54.564Z,428.00
2023-05-16T01:44:54.612Z,428.00
2023-05-16T01:45:54.655Z,433.00
2023-05-16T01:46:54.691Z,434.00
2023-05-16T01:47:54.747Z,435.00
2023-05-16T01:48:54.768Z,433.00
2023-05-16T01:49:54.838Z,436.00
2023-05-16T01:50:54.823Z,436.00
2023-05-16T01:51:54.848Z,434.00
2023-05-16T01:52:54.833Z,436.00
2023-05-16T01:53:54.844Z,437.00
2023-05-16T01:54:54.859Z,437.00
2023-05-16T01:55:54.890Z,436.00
2023-05-16T01:56:54.942Z,437.00
2023-05-16T01:57:54.991Z,438.00
2023-05-16T01:58:55.040Z,434.00
2023-05-16T01:59:55.072Z,435.00
2023-05-16T02:00:55.194Z,436.00
2023-05-16T02:01:55.201Z,434.00
2023-05-16T02:02:55.338Z,436.00
2023-05-16T02:03:55.261Z,433.00
2023-05-16T02:04:55.283Z,432.00
2023-05-16T02:05:55.305Z,434.00
2023-05-16T02:06:55.349Z,434.00
2023-05-16T02:07:55.400Z,432.00
2023-05-16T02:08:55.443Z,432.00
2023-05-16T02:09:55.444Z,434.00
2023-05-16T02:10:55.463Z,436.00
2023-05-16T02:11:55.549Z,436.00
2023-05-16T02:12:55.577Z,435.00
2023-05-16T02:13:55.583Z,433.00
2023-05-16T02:14:55.621Z,436.00
2023-05-16T02:15:55.663Z,440.00
2023-05-16T02:16:55.746Z,435.00
2023-05-16T02:17:55.775Z,437.00
2023-05-16T02:18:55.730Z,436.00
2023-05-16T02:19:55.711Z,434.00
2023-05-16T02:20:55.728Z,434.00
2023-05-16T02:21:55.722Z,436.00
2023-05-16T02:22:55.711Z,437.00
2023-05-16T02:23:55.716Z,436.00
2023-05-16T02:24:55.729Z,439.00
2023-05-16T02:25:55.732Z,438.00
2023-05-16T02:26:55.802Z,436.00
2023-05-16T02:27:55.817Z,437.00
2023-05-16T02:28:55.866Z,437.00
2023-05-16T02:29:55.925Z,435.00
2023-05-16T02:30:56.020Z,435.00
2023-05-16T02:31:56.067Z,435.00
2023-05-16T02:32:56.140Z,439.00
2023-05-16T02:33:56.138Z,439.00
2023-05-16T02:34:56.234Z,440.00
2023-05-16T02:35:56.238Z,442.00
2023-05-16T02:36:56.300Z,441.00
2023-05-16T02:37:56.350Z,444.00
2023-05-16T02:38:56.382Z,446.00
2023-05-16T02:39:56.456Z,446.00
2023-05-16T02:40:56.489Z,444.00
2023-05-16T02:41:56.517Z,444.00
2023-05-16T02:42:56.591Z,442.00
2023-05-16T02:43:56.745Z,444.00
2023-05-16T02:44:56.688Z,441.00
2023-05-16T02:45:56.774Z,441.00
2023-05-16T02:46:56.780Z,440.00
2023-05-16T02:47:56.876Z,438.00
2023-05-16T02:48:56.881Z,438.00
2023-05-16T02:49:56.919Z,438.00
2023-05-16T02:50:56.974Z,439.00
2023-05-16T02:51:57.028Z,439.00
2023-05-16T02:52:57.074Z,440.00
2023-05-16T02:53:57.248Z,440.00
2023-05-16T02:55:15.824Z,439.00
2023-05-16T02:55:58.175Z,436.00
2023-05-16T02:56:57.134Z,436.00
2023-05-16T02:57:57.128Z,433.00
2023-05-16T02:58:57.128Z,432.00
2023-05-16T02:59:57.130Z,437.00
2023-05-16T03:00:57.141Z,437.00
2023-05-16T03:01:57.141Z,437.00
2023-05-16T03:02:57.211Z,438.00
2023-05-16T03:03:57.153Z,438.00
2023-05-16T03:04:57.077Z,437.00
2023-05-16T03:05:57.151Z,436.00
2023-05-16T03:06:57.158Z,436.00
2023-05-16T03:07:57.218Z,433.00
2023-05-16T03:08:57.256Z,429.00
2023-05-16T03:09:57.318Z,429.00
2023-05-16T03:10:57.395Z,430.00
2023-05-16T03:11:57.445Z,432.00
2023-05-16T03:12:57.453Z,432.00
2023-05-16T03:13:58.048Z,431.00
2023-05-16T03:14:57.575Z,433.00
2023-05-16T03:15:57.664Z,435.00
2023-05-16T03:16:57.664Z,437.00
2023-05-16T03:17:57.720Z,437.00
2023-05-16T03:18:57.913Z,436.00
2023-05-16T03:19:57.793Z,433.00
2023-05-16T03:20:57.843Z,430.00
2023-05-16T03:21:57.902Z,430.00
2023-05-16T03:22:57.938Z,431.00
2023-05-16T03:23:58.007Z,430.00
2023-05-16T03:24:57.991Z,428.00
2023-05-16T03:25:57.989Z,428.00
2023-05-16T03:26:57.996Z,429.00
2023-05-16T03:27:57.995Z,430.00
2023-05-16T03:28:58.013Z,429.00
2023-05-16T03:29:58.035Z,428.00
2023-05-16T03:30:58.023Z,429.00
2023-05-16T03:31:58.056Z,428.00
2023-05-16T03:32:58.023Z,430.00
2023-05-16T03:33:58.053Z,431.00
2023-05-16T03:34:58.092Z,432.00
2023-05-16T03:35:58.172Z,434.00
2023-05-16T03:36:58.257Z,434.00
2023-05-16T03:37:58.276Z,434.00
2023-05-16T03:38:58.321Z,433.00
2023-05-16T03:39:58.406Z,431.00
2023-05-16T03:40:58.423Z,431.00
2023-05-16T03:41:58.480Z,429.00
2023-05-16T03:42:58.551Z,429.00
2023-05-16T03:43:58.609Z,432.00
2023-05-16T03:44:58.676Z,435.00
2023-05-16T03:45:58.727Z,435.00
2023-05-16T03:46:58.763Z,436.00
2023-05-16T03:47:58.798Z,436.00
2023-05-16T03:48:58.775Z,436.00
2023-05-16T03:49:58.782Z,435.00
2023-05-16T03:50:58.809Z,436.00
2023-05-16T03:51:58.808Z,436.00
2023-05-16T03:52:58.826Z,434.00
2023-05-16T03:53:58.841Z,432.00
2023-05-16T03:54:58.848Z,430.00
2023-05-16T03:55:58.854Z,431.00
2023-05-16T03:56:58.866Z,433.00
2023-05-16T03:57:58.876Z,434.00
2023-05-16T03:58:58.868Z,433.00
2023-05-16T03:59:58.884Z,434.00
2023-05-16T04:00:58.894Z,435.00
2023-05-16T04:01:58.934Z,435.00
2023-05-16T04:02:58.966Z,434.00
2023-05-16T04:03:58.961Z,434.00
2023-05-16T04:04:59.043Z,435.00
2023-05-16T04:05:59.110Z,435.00
2023-05-16T04:06:59.110Z,434.00
2023-05-16T04:07:59.184Z,432.00
2023-05-16T04:08:59.224Z,431.00
2023-05-16T04:09:59.247Z,431.00
2023-05-16T04:10:59.313Z,432.00
2023-05-16T04:11:59.346Z,430.00
2023-05-16T04:12:59.400Z,430.00
2023-05-16T04:13:59.498Z,429.00
2023-05-16T04:14:59.482Z,430.00
2023-05-16T04:15:59.495Z,429.00
2023-05-16T04:16:59.549Z,430.00
2023-05-16T04:17:59.535Z,428.00
2023-05-16T04:18:59.524Z,428.00
2023-05-16T04:19:59.506Z,430.00
2023-05-16T04:20:59.517Z,431.00
2023-05-16T04:21:59.495Z,434.00
2023-05-16T04:22:59.510Z,436.00
2023-05-16T04:23:59.530Z,436.00
2023-05-16T04:24:59.568Z,435.00
2023-05-16T04:25:59.614Z,434.00
2023-05-16T04:26:59.667Z,434.00
2023-05-16T04:27:59.702Z,432.00
2023-05-16T04:29:00.294Z,433.00
2023-05-16T04:29:59.738Z,434.00
2023-05-16T04:30:59.816Z,435.00
2023-05-16T04:31:59.793Z,434.00
2023-05-16T04:32:59.825Z,436.00
2023-05-16T04:33:59.827Z,437.00
2023-05-16T04:34:59.901Z,439.00
2023-05-16T04:35:59.948Z,441.00
2023-05-16T04:36:59.980Z,440.00
2023-05-16T04:38:00.051Z,437.00
2023-05-16T04:39:00.075Z,438.00
2023-05-16T04:40:00.192Z,437.00
2023-05-16T04:41:00.172Z,436.00
2023-05-16T04:42:00.226Z,439.00
2023-05-16T04:43:00.293Z,440.00
2023-05-16T04:44:00.325Z,440.00
2023-05-16T04:45:00.393Z,442.00
2023-05-16T04:46:00.462Z,440.00
2023-05-16T04:47:00.443Z,438.00
2023-05-16T04:48:00.458Z,440.00
2023-05-16T04:49:00.440Z,439.00
2023-05-16T04:50:00.482Z,440.00
2023-05-16T04:51:00.453Z,440.00
2023-05-16T04:52:00.454Z,440.00
2023-05-16T04:53:00.469Z,440.00
2023-05-16T04:54:00.546Z,439.00
2023-05-16T04:55:00.610Z,441.00
2023-05-16T04:56:00.611Z,437.00
2023-05-16T04:57:00.677Z,436.00
2023-05-16T04:58:00.735Z,435.00
2023-05-16T04:59:00.759Z,437.00
2023-05-16T05:00:00.837Z,437.00
2023-05-16T05:01:01.906Z,439.00
2023-05-16T05:02:00.944Z,440.00
2023-05-16T05:03:01.014Z,441.00
2023-05-16T05:04:01.004Z,441.00
2023-05-16T05:05:01.165Z,442.00
2023-05-16T05:06:01.126Z,442.00
2023-05-16T05:07:01.156Z,442.00
2023-05-16T05:08:01.131Z,441.00
2023-05-16T05:09:01.161Z,441.00
2023-05-16T05:10:01.153Z,439.00
2023-05-16T05:11:01.163Z,438.00
2023-05-16T05:12:01.203Z,439.00
2023-05-16T05:13:01.284Z,438.00
2023-05-16T05:14:01.341Z,437.00
2023-05-16T05:15:01.369Z,436.00
2023-05-16T05:16:01.435Z,437.00
2023-05-16T05:17:01.496Z,440.00
2023-05-16T05:18:01.785Z,441.00
2023-05-16T05:19:01.680Z,440.00
2023-05-16T05:20:03.116Z,441.00
2023-05-16T05:21:01.626Z,442.00
2023-05-16T05:22:01.626Z,444.00
2023-05-16T05:23:01.637Z,446.00
2023-05-16T05:24:01.642Z,446.00
2023-05-16T05:25:01.663Z,445.00
2023-05-16T05:26:01.662Z,443.00
2023-05-16T05:27:01.664Z,441.00
2023-05-16T05:28:01.678Z,444.00
2023-05-16T05:29:05.739Z,445.00
2023-05-16T05:30:01.664Z,476.00
2023-05-16T05:31:01.853Z,491.00
2023-05-16T05:32:01.834Z,503.00
2023-05-16T05:33:01.714Z,519.00
2023-05-16T05:34:01.633Z,574.00
2023-05-16T05:35:01.631Z,599.00
2023-05-16T05:36:04.049Z,623.00
2023-05-16T05:37:01.876Z,702.00
2023-05-16T05:38:01.894Z,719.00
2023-05-16T05:39:01.952Z,737.00
2023-05-16T05:40:01.985Z,808.00
2023-05-16T05:41:02.318Z,829.00
2023-05-16T05:42:02.039Z,942.00
2023-05-16T05:43:02.068Z,943.00
2023-05-16T05:44:02.063Z,966.00
2023-05-16T05:45:02.091Z,988.00
2023-05-16T05:46:02.405Z,1001.00
2023-05-16T05:47:02.081Z,1011.00
2023-05-16T05:48:02.106Z,1020.00
2023-05-16T05:49:02.109Z,1048.00
2023-05-16T05:50:02.157Z,1055.00
2023-05-16T05:51:02.344Z,1100.00
2023-05-16T05:52:02.258Z,1102.00
2023-05-16T05:53:02.288Z,1105.00
2023-05-16T05:54:02.371Z,1115.00
2023-05-16T05:55:02.430Z,1132.00
2023-05-16T05:56:02.453Z,1147.00
2023-05-16T05:57:02.521Z,1142.00
2023-05-16T05:58:03.785Z,1148.00
2023-05-16T05:59:02.544Z,1150.00
2023-05-16T06:00:02.564Z,1154.00
2023-05-16T06:01:02.551Z,1160.00
2023-05-16T06:02:02.705Z,1165.00
2023-05-16T06:03:02.704Z,1161.00
2023-05-16T06:04:02.720Z,1168.00
2023-05-16T06:05:02.805Z,1219.00
2023-05-16T06:06:02.831Z,1234.00
2023-05-16T06:07:02.869Z,1241.00
2023-05-16T06:08:02.896Z,1250.00
2023-05-16T06:09:02.946Z,1255.00
2023-05-16T06:10:04.801Z,1261.00
2023-05-16T06:11:03.349Z,1270.00
2023-05-16T06:12:03.093Z,1278.00
2023-05-16T06:13:03.130Z,1291.00
2023-05-16T06:14:03.166Z,1295.00
2023-05-16T06:15:03.202Z,1297.00
2023-05-16T06:16:03.287Z,1292.00
2023-05-16T06:17:03.337Z,1287.00
2023-05-16T06:18:03.554Z,1284.00
2023-05-16T06:19:03.479Z,1284.00
2023-05-16T06:20:03.517Z,1284.00
2023-05-16T06:21:03.548Z,1282.00
2023-05-16T06:22:03.597Z,1284.00
2023-05-16T06:23:03.615Z,1282.00
2023-05-16T06:24:03.634Z,1277.00
2023-05-16T06:25:03.645Z,1278.00
2023-05-16T06:26:03.678Z,1273.00
2023-05-16T06:27:03.708Z,1274.00
2023-05-16T06:28:03.750Z,1274.00
2023-05-16T06:29:03.740Z,1285.00
2023-05-16T06:30:03.760Z,1288.00
2023-05-16T06:31:03.859Z,1297.00
2023-05-16T06:32:03.882Z,1313.00
2023-05-16T06:33:03.891Z,1322.00
2023-05-16T06:34:03.834Z,1313.00
2023-05-16T06:35:03.867Z,1244.00
2023-05-16T06:36:03.884Z,1169.00
2023-05-16T06:37:03.967Z,1209.00
2023-05-16T06:38:03.985Z,1244.00
2023-05-16T06:39:04.045Z,1276.00
2023-05-16T06:40:04.112Z,1280.00
2023-05-16T06:41:04.409Z,1284.00
2023-05-16T06:42:04.230Z,1285.00
2023-05-16T06:43:04.274Z,1292.00
2023-05-16T06:44:04.309Z,1297.00
2023-05-16T06:45:04.400Z,1303.00
2023-05-16T06:46:04.535Z,1311.00
2023-05-16T06:47:04.489Z,1285.00
2023-05-16T06:48:04.561Z,1287.00
2023-05-16T06:49:04.501Z,1290.00
2023-05-16T06:50:04.511Z,1286.00
2023-05-16T06:51:04.874Z,1282.00
2023-05-16T06:52:04.510Z,1278.00
2023-05-16T06:53:04.560Z,1272.00
2023-05-16T06:54:04.539Z,1272.00
2023-05-16T06:55:04.588Z,1273.00
2023-05-16T06:56:04.518Z,1266.00
2023-05-16T06:57:04.573Z,1257.00
2023-05-16T06:58:04.609Z,1257.00
2023-05-16T06:59:04.670Z,1256.00
2023-05-16T07:00:04.723Z,1258.00
2023-05-16T07:01:04.818Z,1167.00
2023-05-16T07:02:04.825Z,1180.00
2023-05-16T07:03:04.912Z,1203.00
2023-05-16T07:04:04.971Z,1217.00
2023-05-16T07:05:04.923Z,1223.00
2023-05-16T07:06:04.973Z,1210.00
2023-05-16T07:07:05.036Z,1172.00
2023-05-16T07:08:07.648Z,1174.00
2023-05-16T07:09:05.082Z,1164.00
2023-05-16T07:10:05.091Z,1145.00
2023-05-16T07:11:05.381Z,1122.00
2023-05-16T07:12:05.069Z,1069.00
2023-05-16T07:13:05.147Z,955.00
2023-05-16T07:14:05.076Z,1009.00
2023-05-16T07:15:05.031Z,1018.00
2023-05-16T07:16:05.092Z,1025.00
2023-05-16T07:17:05.172Z,1019.00
2023-05-16T07:18:05.085Z,1011.00
2023-05-16T07:19:05.105Z,1003.00
2023-05-16T07:20:05.634Z,982.00
2023-05-16T07:21:05.372Z,962.00
2023-05-16T07:22:04.992Z,942.00
2023-05-16T07:23:04.991Z,909.00
2023-05-16T07:24:04.984Z,919.00
2023-05-16T07:25:05.017Z,918.00
2023-05-16T07:26:05.396Z,917.00
2023-05-16T07:27:04.970Z,791.00
2023-05-16T07:28:04.951Z,763.00
2023-05-16T07:29:04.964Z,830.00
2023-05-16T07:30:04.938Z,850.00
2023-05-16T07:31:04.941Z,856.00
2023-05-16T07:32:04.956Z,857.00
2023-05-16T07:33:04.965Z,858.00
2023-05-16T07:34:04.927Z,840.00
2023-05-16T07:35:04.897Z,803.00
2023-05-16T07:36:16.050Z,724.00
2023-05-16T07:37:05.891Z,705.00
2023-05-16T07:38:04.883Z,659.00
2023-05-16T07:39:04.881Z,636.00
2023-05-16T07:40:04.892Z,640.00
2023-05-16T07:41:04.910Z,647.00
2023-05-16T07:42:04.846Z,638.00
2023-05-16T07:43:04.867Z,634.00
2023-05-16T07:44:04.884Z,631.00
2023-05-16T07:45:04.820Z,630.00
2023-05-16T07:46:04.849Z,616.00
2023-05-16T07:47:04.868Z,602.00
2023-05-16T07:48:04.935Z,592.00
2023-05-16T07:49:04.915Z,590.00
2023-05-16T07:50:04.955Z,591.00
2023-05-16T07:51:05.264Z,590.00
2023-05-16T07:52:05.070Z,588.00
2023-05-16T07:53:05.110Z,585.00
2023-05-16T07:54:05.149Z,579.00
2023-05-16T07:55:05.212Z,572.00
2023-05-16T07:56:05.603Z,565.00
2023-05-16T07:57:05.349Z,561.00
2023-05-16T07:58:05.391Z,559.00
2023-05-16T07:59:05.476Z,556.00
2023-05-16T08:00:05.535Z,555.00
2023-05-16T08:01:05.598Z,552.00
2023-05-16T08:02:05.677Z,552.00
2023-05-16T08:03:05.816Z,547.00
2023-05-16T08:04:05.820Z,546.00
2023-05-16T08:05:05.857Z,544.00
2023-05-16T08:06:06.107Z,541.00
2023-05-16T08:07:05.956Z,537.00
2023-05-16T08:08:06.037Z,534.00
2023-05-16T08:09:06.082Z,530.00
2023-05-16T08:10:06.160Z,525.00
2023-05-16T08:11:06.189Z,522.00
2023-05-16T08:12:06.225Z,521.00
2023-05-16T08:13:06.258Z,517.00
2023-05-16T08:14:06.327Z,517.00
2023-05-16T08:15:06.383Z,516.00
2023-05-16T08:16:06.435Z,517.00
2023-05-16T08:17:06.408Z,517.00
2023-05-16T08:18:06.474Z,517.00
2023-05-16T08:19:06.525Z,517.00
2023-05-16T08:20:06.574Z,513.00
2023-05-16T08:21:06.900Z,522.00
2023-05-16T08:22:06.600Z,563.00
2023-05-16T08:23:06.629Z,557.00
2023-05-16T08:24:06.706Z,610.00
2023-05-16T08:25:06.776Z,632.00
2023-05-16T08:26:06.847Z,719.00
2023-05-16T08:27:06.883Z,695.00
2023-05-16T08:28:06.940Z,753.00
2023-05-16T08:29:06.998Z,742.00
2023-05-16T08:30:07.061Z,790.00
2023-05-16T08:31:07.142Z,811.00
2023-05-16T08:32:07.180Z,817.00
2023-05-16T08:33:07.299Z,835.00
2023-05-16T08:34:07.283Z,855.00
2023-05-16T08:35:07.337Z,864.00
2023-05-16T08:36:07.435Z,885.00
2023-05-16T08:37:07.892Z,921.00
2023-05-16T08:38:07.484Z,959.00
2023-05-16T08:39:07.553Z,972.00
2023-05-16T08:40:07.618Z,983.00
2023-05-16T08:41:07.918Z,872.00
2023-05-16T08:42:07.713Z,833.00
2023-05-16T08:43:07.763Z,822.00
2023-05-16T08:44:08.428Z,799.00
2023-05-16T08:45:07.811Z,792.00
2023-05-16T08:46:07.957Z,785.00
2023-05-16T08:47:07.910Z,887.00
2023-05-16T08:48:10.268Z,762.00
2023-05-16T08:49:08.033Z,797.00
2023-05-16T08:50:07.921Z,879.00
2023-05-16T08:51:07.918Z,824.00
2023-05-16T08:52:07.936Z,790.00
2023-05-16T08:53:07.899Z,785.00
2023-05-16T08:54:07.882Z,779.00
2023-05-16T08:55:11.352Z,766.00
2023-05-16T08:56:07.909Z,768.00
2023-05-16T08:57:07.878Z,860.00
2023-05-16T08:58:07.869Z,761.00
2023-05-16T08:59:07.868Z,742.00
2023-05-16T09:00:07.834Z,822.00
2023-05-16T09:01:07.986Z,817.00
2023-05-16T09:02:07.850Z,835.00
2023-05-16T09:03:07.939Z,842.00
2023-05-16T09:04:07.862Z,902.00
2023-05-16T09:05:07.811Z,884.00
2023-05-16T09:06:08.306Z,889.00
2023-05-16T09:07:07.797Z,888.00
2023-05-16T09:08:07.787Z,877.00
2023-05-16T09:09:07.785Z,826.00
2023-05-16T09:10:07.822Z,856.00
2023-05-16T09:11:07.914Z,791.00
2023-05-16T09:12:07.779Z,868.00
2023-05-16T09:13:07.752Z,895.00
2023-05-16T09:14:07.759Z,798.00
2023-05-16T09:15:07.747Z,834.00
2023-05-16T09:16:07.944Z,843.00
2023-05-16T09:17:09.090Z,852.00
2023-05-16T09:18:07.744Z,850.00
2023-05-16T09:19:07.752Z,857.00
2023-05-16T09:20:07.738Z,869.00
2023-05-16T09:21:07.720Z,869.00
2023-05-16T09:22:07.717Z,925.00
2023-05-16T09:23:07.695Z,924.00
2023-05-16T09:24:07.706Z,817.00
2023-05-16T09:25:12.659Z,912.00
2023-05-16T09:26:08.934Z,923.00
2023-05-16T09:27:07.668Z,922.00
2023-05-16T09:28:07.689Z,924.00
2023-05-16T09:29:07.664Z,929.00
2023-05-16T09:30:07.653Z,994.00
2023-05-16T09:31:07.944Z,1127.00
2023-05-16T09:32:07.678Z,1139.00
2023-05-16T09:33:07.699Z,1150.00
2023-05-16T09:34:07.652Z,1164.00
2023-05-16T09:35:07.617Z,1178.00
2023-05-16T09:36:09.418Z,1174.00
2023-05-16T09:37:07.595Z,1133.00
2023-05-16T09:38:07.604Z,1134.00
2023-05-16T09:39:07.594Z,934.00
2023-05-16T09:40:07.596Z,708.00
2023-05-16T09:41:07.580Z,745.00
2023-05-16T09:42:07.561Z,780.00
2023-05-16T09:43:07.548Z,771.00
2023-05-16T09:44:07.576Z,784.00
2023-05-16T09:45:07.585Z,669.00
2023-05-16T09:46:07.901Z,615.00
2023-05-16T09:47:07.693Z,621.00
2023-05-16T09:48:07.820Z,623.00
2023-05-16T09:49:07.824Z,613.00
2023-05-16T09:50:07.852Z,637.00
2023-05-16T09:51:08.429Z,632.00
2023-05-16T09:52:09.939Z,629.00
2023-05-16T09:53:08.035Z,621.00
2023-05-16T09:54:08.074Z,617.00
2023-05-16T09:55:08.074Z,618.00
2023-05-16T09:56:08.187Z,607.00
2023-05-16T09:57:08.110Z,596.00
2023-05-16T09:58:08.117Z,585.00
2023-05-16T09:59:08.190Z,579.00
2023-05-16T10:00:08.182Z,569.00
2023-05-16T10:01:08.195Z,567.00
2023-05-16T10:02:08.251Z,562.00
2023-05-16T10:03:08.351Z,559.00
2023-05-16T10:04:08.353Z,561.00
2023-05-16T10:05:08.311Z,559.00
2023-05-16T10:06:08.346Z,558.00
2023-05-16T10:07:08.359Z,554.00
2023-05-16T10:08:08.395Z,551.00
2023-05-16T10:09:08.422Z,548.00
2023-05-16T10:10:08.436Z,540.00
2023-05-16T10:11:08.460Z,535.00
2023-05-16T10:12:08.496Z,531.00
2023-05-16T10:13:08.538Z,532.00
2023-05-16T10:14:08.538Z,530.00
2023-05-16T10:15:08.550Z,528.00
2023-05-16T10:16:08.639Z,524.00
2023-05-16T10:17:08.580Z,525.00
2023-05-16T10:18:08.613Z,522.00
2023-05-16T10:19:08.689Z,519.00
2023-05-16T10:20:08.948Z,516.00
2023-05-16T10:22:08.694Z,598.00
2023-05-16T10:23:08.750Z,618.00
2023-05-16T10:24:08.791Z,660.00
2023-05-16T10:25:08.933Z,718.00
2023-05-16T10:26:08.961Z,779.00
2023-05-16T10:27:08.864Z,790.00
2023-05-16T10:28:08.878Z,788.00
2023-05-16T10:29:08.926Z,790.00
2023-05-16T10:30:08.901Z,805.00
2023-05-16T10:31:08.887Z,856.00
2023-05-16T10:32:08.965Z,870.00
2023-05-16T10:33:09.112Z,881.00
2023-05-16T10:34:08.987Z,902.00
2023-05-16T10:35:09.051Z,937.00
2023-05-16T10:36:09.450Z,945.00
2023-05-16T10:37:09.109Z,954.00
2023-05-16T10:38:09.133Z,966.00
2023-05-16T10:39:09.143Z,995.00
2023-05-16T10:40:09.158Z,1005.00
2023-05-16T10:41:09.173Z,1020.00
2023-05-16T10:42:09.380Z,1027.00
2023-05-16T10:43:09.177Z,1030.00
2023-05-16T10:44:09.171Z,1040.00
2023-05-16T10:45:09.187Z,1046.00
2023-05-16T10:46:09.206Z,1055.00
2023-05-16T10:47:09.277Z,1072.00
2023-05-16T10:48:09.359Z,1073.00
2023-05-16T10:49:09.240Z,1076.00
2023-05-16T10:50:09.296Z,1091.00
2023-05-16T10:51:09.225Z,1132.00
2023-05-16T10:52:09.226Z,1138.00
2023-05-16T10:53:09.260Z,1134.00
2023-05-16T10:54:09.352Z,993.00
2023-05-16T10:55:09.281Z,1047.00
2023-05-16T10:56:09.345Z,1075.00
2023-05-16T10:57:09.362Z,1037.00
2023-05-16T10:58:09.413Z,1046.00
2023-05-16T10:59:09.446Z,1049.00
2023-05-16T11:00:09.688Z,1049.00
2023-05-16T11:01:09.989Z,1058.00
2023-05-16T11:02:09.971Z,1066.00
2023-05-16T11:03:09.674Z,1066.00
2023-05-16T11:04:09.513Z,1058.00
2023-05-16T11:05:09.548Z,1049.00
2023-05-16T11:06:09.962Z,1038.00
2023-05-16T11:07:09.965Z,1030.00
2023-05-16T11:08:09.595Z,940.00
2023-05-16T11:09:09.619Z,961.00
2023-05-16T11:10:09.648Z,967.00
2023-05-16T11:11:09.663Z,967.00
2023-05-16T11:12:09.736Z,854.00
2023-05-16T11:13:09.676Z,958.00
2023-05-16T11:14:09.716Z,844.00
2023-05-16T11:15:09.711Z,844.00
2023-05-16T11:16:09.985Z,837.00
2023-05-16T11:17:09.975Z,837.00
2023-05-16T11:18:09.781Z,848.00
2023-05-16T11:19:09.836Z,845.00
2023-05-16T11:20:09.774Z,845.00
2023-05-16T11:21:10.026Z,843.00
2023-05-16T11:22:09.813Z,830.00
2023-05-16T11:23:09.838Z,722.00
2023-05-16T11:24:09.851Z,751.00
2023-05-16T11:25:09.898Z,665.00
2023-05-16T11:26:09.972Z,612.00
2023-05-16T11:27:09.950Z,597.00
2023-05-16T11:28:09.961Z,615.00
2023-05-16T11:29:10.010Z,656.00
2023-05-16T11:30:10.034Z,694.00
2023-05-16T11:31:10.135Z,711.00
2023-05-16T11:32:10.150Z,714.00
2023-05-16T11:33:10.244Z,713.00
2023-05-16T11:34:10.248Z,705.00
2023-05-16T11:35:12.832Z,698.00
2023-05-16T11:37:10.287Z,695.00
2023-05-16T11:38:10.275Z,692.00
2023-05-16T11:39:10.316Z,692.00
2023-05-16T11:40:10.284Z,694.00
2023-05-16T11:41:10.247Z,699.00
2023-05-16T11:42:10.252Z,703.00
2023-05-16T11:43:10.236Z,706.00
2023-05-16T11:44:10.237Z,704.00
2023-05-16T11:45:10.251Z,699.00
2023-05-16T11:46:10.217Z,697.00
2023-05-16T11:47:10.319Z,695.00
2023-05-16T11:48:11.713Z,689.00
2023-05-16T11:49:10.213Z,687.00
2023-05-16T11:50:10.214Z,684.00
2023-05-16T11:51:10.181Z,681.00
2023-05-16T11:52:10.169Z,677.00
2023-05-16T11:53:10.158Z,672.00
2023-05-16T11:54:10.171Z,666.00
2023-05-16T11:55:10.155Z,663.00
2023-05-16T11:56:10.176Z,659.00
2023-05-16T11:57:10.152Z,655.00
2023-05-16T11:58:10.261Z,652.00
2023-05-16T11:59:10.111Z,647.00
2023-05-16T12:00:10.982Z,643.00
2023-05-16T12:01:10.125Z,641.00
2023-05-16T12:02:10.123Z,641.00
2023-05-16T12:03:10.209Z,637.00
2023-05-16T12:04:10.237Z,634.00
2023-05-16T12:05:10.321Z,629.00
2023-05-16T12:06:10.064Z,623.00
2023-05-16T12:07:10.084Z,620.00
2023-05-16T12:08:10.099Z,617.00
2023-05-16T12:09:10.056Z,616.00
2023-05-16T12:10:10.050Z,612.00
2023-05-16T12:11:10.093Z,611.00
2023-05-16T12:12:10.132Z,606.00
2023-05-16T12:13:10.185Z,602.00
2023-05-16T12:14:10.211Z,599.00
2023-05-16T12:15:10.241Z,596.00
2023-05-16T12:16:10.341Z,591.00
2023-05-16T12:17:10.414Z,586.00
2023-05-16T12:18:10.398Z,584.00
2023-05-16T12:19:10.401Z,582.00
2023-05-16T12:20:10.428Z,579.00
2023-05-16T12:21:10.448Z,577.00
2023-05-16T12:22:10.483Z,576.00
2023-05-16T12:23:10.508Z,576.00
2023-05-16T12:24:10.542Z,575.00
2023-05-16T12:25:10.577Z,572.00
2023-05-16T12:26:10.633Z,569.00
2023-05-16T12:27:10.678Z,569.00